Time;durP1;ratioP1;P1;durP2;ratioP2;P2;SDS_P1;SDS_P2;PMS_P1;PMS_P2;Temp;Humidity;BMP_temperature;BMP_pressure;BME280_temperature;BME280_humidity;BME280_pressure;Samples;Min_cycle;Max_cycle;Signal;HPM_P1;HPM_P2
2022/12/29 00:01:43;;;;;;;;;;;10.10;99.90;;;;;;4943842;28;176721;-71
2022/12/29 00:04:11;;;;;;;;;;;10.10;99.90;;;;;;5004091;28;19922;-72
2022/12/29 00:06:38;;;;;;;;;;;10.10;99.90;;;;;;4956047;28;139178;-70
2022/12/29 00:09:04;;;;;;;;;;;10.10;99.90;;;;;;5008009;28;19921;-71
2022/12/29 00:11:30;;;;;;;;;;;10.10;99.90;;;;;;4955304;28;209408;-69
2022/12/29 00:16:41;;;;;;;;;;;10.10;99.90;;;;;;4943300;28;246367;-70
2022/12/29 00:35:07;;;;;;;;;;;10.00;99.90;;;;;;5003394;28;19929;-70
2022/12/29 00:35:45;;;;;;;;;;;10.10;99.90;;;;;;4953913;28;155520;-72
2022/12/29 00:46:25;;;;;;;;;;;10.20;99.90;;;;;;4932725;28;214514;-71
2022/12/29 00:51:36;;;;;;;;;;;10.20;99.90;;;;;;4951470;28;205363;-70
2022/12/29 00:54:02;;;;;;;;;;;10.20;99.90;;;;;;5002795;28;19926;-70
2022/12/29 00:56:28;;;;;;;;;;;10.20;99.90;;;;;;4952858;28;212682;-70
2022/12/29 00:58:54;;;;;;;;;;;10.30;99.90;;;;;;4997032;28;19928;-70
2022/12/29 01:01:20;;;;;;;;;;;10.30;99.90;;;;;;4937352;28;234321;-71
2022/12/29 01:03:46;;;;;;;;;;;10.30;99.90;;;;;;4997303;28;20387;-71
2022/12/29 01:06:12;;;;;;;;;;;10.30;99.90;;;;;;4963008;28;243521;-71
2022/12/29 01:08:38;;;;;;;;;;;10.30;99.90;;;;;;5012906;28;19932;-70
2022/12/29 01:11:05;;;;;;;;;;;10.30;99.90;;;;;;4949580;28;209077;-70
2022/12/29 01:13:31;;;;;;;;;;;10.30;99.90;;;;;;4996065;28;19925;-71
2022/12/29 01:15:58;;;;;;;;;;;10.30;99.90;;;;;;4946104;28;208432;-72
2022/12/29 01:18:25;;;;;;;;;;;10.40;99.90;;;;;;5006529;28;19980;-71
2022/12/29 01:20:51;;;;;;;;;;;10.40;99.90;;;;;;4954704;28;227244;-69
2022/12/29 01:23:17;;;;;;;;;;;10.40;99.90;;;;;;4986001;28;19933;-71
2022/12/29 01:25:43;;;;;;;;;;;10.40;99.90;;;;;;4942383;28;239299;-72
2022/12/29 01:28:09;;;;;;;;;;;10.40;99.90;;;;;;4991017;28;19930;-72
2022/12/29 01:30:35;;;;;;;;;;;10.40;99.90;;;;;;4957551;28;166122;-71
2022/12/29 01:33:01;;;;;;;;;;;10.40;99.90;;;;;;5015699;28;20306;-71
2022/12/29 01:35:27;;;;;;;;;;;10.40;99.90;;;;;;4951732;28;212397;-72
2022/12/29 01:37:53;;;;;;;;;;;10.40;99.90;;;;;;4973803;28;19921;-71
2022/12/29 01:40:19;;;;;;;;;;;10.30;99.90;;;;;;4945587;28;206202;-71
2022/12/29 01:42:45;;;;;;;;;;;10.40;99.90;;;;;;5013016;28;19918;-71
2022/12/29 01:45:13;;;;;;;;;;;10.30;99.90;;;;;;4945354;28;230240;-72
2022/12/29 01:47:44;;;;;;;;;;;10.40;99.90;;;;;;4981046;28;19922;-70
2022/12/29 01:50:15;;;;;;;;;;;10.40;99.90;;;;;;4942436;28;208500;-71
2022/12/29 01:52:51;;;;;;;;;;;10.40;99.90;;;;;;4981006;28;19918;-70
2022/12/29 01:55:17;;;;;;;;;;;10.40;99.90;;;;;;4951552;28;207268;-72
2022/12/29 01:57:45;;;;;;;;;;;10.30;99.90;;;;;;4978230;28;19932;-70
2022/12/29 02:00:13;;;;;;;;;;;10.40;99.90;;;;;;4943500;28;211147;-70
2022/12/29 02:02:41;;;;;;;;;;;10.40;99.90;;;;;;4985955;28;19932;-70
2022/12/29 02:05:11;;;;;;;;;;;10.40;99.90;;;;;;4949422;28;209837;-71
2022/12/29 02:07:37;;;;;;;;;;;10.40;99.90;;;;;;4997258;28;19925;-71
2022/12/29 02:10:03;;;;;;;;;;;10.40;99.90;;;;;;4967520;28;230778;-71
2022/12/29 02:12:29;;;;;;;;;;;10.50;99.90;;;;;;4977426;28;199464;-72
2022/12/29 02:14:59;;;;;;;;;;;10.40;99.90;;;;;;4982225;28;233333;-71
2022/12/29 02:17:25;;;;;;;;;;;10.50;99.90;;;;;;4959227;28;211390;-72
2022/12/29 02:20:10;;;;;;;;;;;10.50;99.90;;;;;;5001944;28;20044;-72
2022/12/29 02:22:39;;;;;;;;;;;10.50;99.90;;;;;;4934166;28;209072;-72
2022/12/29 02:25:11;;;;;;;;;;;10.50;99.90;;;;;;4956333;28;211192;-72
2022/12/29 02:27:46;;;;;;;;;;;10.50;99.90;;;;;;4995700;28;20294;-71
2022/12/29 02:30:30;;;;;;;;;;;10.50;99.90;;;;;;4952018;28;189632;-71
2022/12/29 02:32:59;;;;;;;;;;;10.50;99.90;;;;;;4974406;28;19926;-71
2022/12/29 02:36:04;;;;;;;;;;;10.40;99.90;;;;;;4953224;28;207811;-72
2022/12/29 02:38:56;;;;;;;;;;;10.40;99.90;;;;;;4951041;28;19925;-71
2022/12/29 02:41:31;;;;;;;;;;;10.30;99.90;;;;;;4909505;28;40553;-70
2022/12/29 02:44:16;;;;;;;;;;;10.30;99.90;;;;;;4950856;28;20565;-70
2022/12/29 02:46:53;;;;;;;;;;;10.30;99.90;;;;;;4912747;28;37066;-69
2022/12/29 02:49:22;;;;;;;;;;;10.30;99.90;;;;;;4957074;28;19926;-70
2022/12/29 02:51:54;;;;;;;;;;;10.30;99.90;;;;;;4908276;28;116799;-71
2022/12/29 02:57:10;;;;;;;;;;;10.40;99.90;;;;;;4872545;29;208003;-70
2022/12/29 02:59:36;;;;;;;;;;;10.40;99.90;;;;;;4944279;28;20426;-70
2022/12/29 03:02:16;;;;;;;;;;;10.40;99.90;;;;;;4890867;28;95929;-70
2022/12/29 03:04:45;;;;;;;;;;;10.40;99.90;;;;;;4958337;28;19994;-69
2022/12/29 03:07:14;;;;;;;;;;;10.40;99.90;;;;;;4902175;28;70946;-70
2022/12/29 03:10:08;;;;;;;;;;;10.40;99.90;;;;;;4981540;28;20330;-70
2022/12/29 03:18:22;;;;;;;;;;;10.40;99.90;;;;;;5014433;28;19921;-70
2022/12/29 03:21:08;;;;;;;;;;;10.50;99.90;;;;;;4955336;28;210004;-69
2022/12/29 03:23:35;;;;;;;;;;;10.50;99.90;;;;;;5003237;28;20310;-71
2022/12/29 03:26:03;;;;;;;;;;;10.50;99.90;;;;;;4945672;28;206294;-70
2022/12/29 03:28:31;;;;;;;;;;;10.60;99.90;;;;;;4996591;28;19929;-70
2022/12/29 03:30:58;;;;;;;;;;;10.50;99.90;;;;;;4952805;28;207990;-71
2022/12/29 03:33:26;;;;;;;;;;;10.50;99.90;;;;;;4989197;28;19922;-68
2022/12/29 03:35:57;;;;;;;;;;;10.60;99.90;;;;;;4963215;28;212314;-69
2022/12/29 03:38:43;;;;;;;;;;;10.50;99.90;;;;;;5010692;28;20522;-71
2022/12/29 03:41:11;;;;;;;;;;;10.40;99.90;;;;;;4941157;28;209290;-70
2022/12/29 03:43:37;;;;;;;;;;;10.40;99.90;;;;;;4996358;28;19930;-71
2022/12/29 03:46:03;;;;;;;;;;;10.40;99.90;;;;;;4955870;28;207429;-70
2022/12/29 03:48:29;;;;;;;;;;;10.40;99.90;;;;;;5006863;28;19929;-70
2022/12/29 03:50:55;;;;;;;;;;;10.40;99.90;;;;;;4956744;28;140428;-70
2022/12/29 03:53:21;;;;;;;;;;;10.40;99.90;;;;;;5007248;28;19983;-72
2022/12/29 03:55:47;;;;;;;;;;;10.40;99.90;;;;;;4948563;28;208910;-71
2022/12/29 03:58:13;;;;;;;;;;;10.30;99.90;;;;;;5000304;28;20555;-71
2022/12/29 04:00:39;;;;;;;;;;;10.30;99.90;;;;;;4947808;28;220333;-71
2022/12/29 04:03:05;;;;;;;;;;;10.20;99.90;;;;;;5003637;28;20482;-71
2022/12/29 04:05:31;;;;;;;;;;;10.30;99.90;;;;;;4945775;28;73883;-69
2022/12/29 04:07:57;;;;;;;;;;;10.30;99.90;;;;;;4990737;28;19927;-70
2022/12/29 04:10:23;;;;;;;;;;;10.20;99.90;;;;;;4956417;28;208283;-69
2022/12/29 04:12:49;;;;;;;;;;;10.30;99.90;;;;;;5002345;28;19925;-71
2022/12/29 04:15:15;;;;;;;;;;;10.20;99.90;;;;;;4952564;28;207202;-69
2022/12/29 04:17:41;;;;;;;;;;;10.20;99.90;;;;;;5015092;28;19925;-71
2022/12/29 04:23:01;;;;;;;;;;;10.20;99.90;;;;;;5001912;28;19922;-72
2022/12/29 04:25:27;;;;;;;;;;;10.20;99.90;;;;;;4955349;28;170226;-71
2022/12/29 04:27:53;;;;;;;;;;;10.30;99.90;;;;;;5013753;28;19930;-70
2022/12/29 04:30:19;;;;;;;;;;;10.30;99.90;;;;;;4953407;28;207971;-70
2022/12/29 04:32:45;;;;;;;;;;;10.30;99.90;;;;;;4997418;28;20482;-70
2022/12/29 04:35:11;;;;;;;;;;;10.30;99.90;;;;;;4950698;28;205194;-70
2022/12/29 04:37:37;;;;;;;;;;;10.20;99.90;;;;;;4985036;28;20354;-70
2022/12/29 04:40:03;;;;;;;;;;;10.20;99.90;;;;;;4976387;28;78160;-70
2022/12/29 04:42:29;;;;;;;;;;;10.20;99.90;;;;;;4994959;28;207046;-71
2022/12/29 04:44:55;;;;;;;;;;;10.10;99.90;;;;;;4998235;28;207475;-69
2022/12/29 04:47:21;;;;;;;;;;;10.10;99.90;;;;;;4981811;28;55513;-70
2022/12/29 04:49:47;;;;;;;;;;;10.00;99.90;;;;;;5003084;28;20453;-70
2022/12/29 04:52:13;;;;;;;;;;;10.00;99.90;;;;;;4948341;28;212769;-72
2022/12/29 04:54:39;;;;;;;;;;;9.90;99.90;;;;;;5004117;28;19975;-71
2022/12/29 04:57:05;;;;;;;;;;;9.80;99.90;;;;;;4954196;28;206805;-71
2022/12/29 04:59:31;;;;;;;;;;;9.80;99.90;;;;;;5003021;28;20087;-70
2022/12/29 05:01:57;;;;;;;;;;;9.80;99.90;;;;;;4939419;28;232235;-70
2022/12/29 05:04:23;;;;;;;;;;;9.70;99.90;;;;;;4995196;28;19926;-71
2022/12/29 05:06:49;;;;;;;;;;;9.80;99.90;;;;;;4962619;28;207626;-70
2022/12/29 05:09:15;;;;;;;;;;;9.70;99.90;;;;;;5002451;28;19925;-70
2022/12/29 05:11:41;;;;;;;;;;;9.70;99.90;;;;;;4940190;28;207412;-71
2022/12/29 05:14:07;;;;;;;;;;;9.70;99.90;;;;;;4998451;28;20469;-71
2022/12/29 05:16:33;;;;;;;;;;;9.70;99.90;;;;;;4945375;28;180554;-71
2022/12/29 05:18:58;;;;;;;;;;;9.70;99.90;;;;;;5001253;28;19952;-71
2022/12/29 05:21:24;;;;;;;;;;;9.70;99.90;;;;;;4956076;28;207638;-71
2022/12/29 05:23:50;;;;;;;;;;;9.70;99.90;;;;;;5005255;28;20466;-71
2022/12/29 05:26:16;;;;;;;;;;;9.70;99.90;;;;;;4952910;28;227036;-69
2022/12/29 05:28:42;;;;;;;;;;;9.70;99.90;;;;;;5003733;28;19926;-70
2022/12/29 05:31:08;;;;;;;;;;;9.70;99.90;;;;;;4954575;28;214441;-70
2022/12/29 05:33:34;;;;;;;;;;;9.70;99.90;;;;;;5002881;28;20769;-70
2022/12/29 05:36:03;;;;;;;;;;;9.70;99.90;;;;;;4948446;28;211186;-72
2022/12/29 05:38:29;;;;;;;;;;;9.60;99.90;;;;;;5004072;28;19925;-72
2022/12/29 05:40:55;;;;;;;;;;;9.60;99.90;;;;;;4953964;28;207525;-72
2022/12/29 05:43:21;;;;;;;;;;;9.60;99.90;;;;;;4998267;28;20698;-72
2022/12/29 05:45:50;;;;;;;;;;;9.60;99.90;;;;;;4956524;28;203988;-72
2022/12/29 05:48:16;;;;;;;;;;;9.50;99.90;;;;;;5001940;28;19922;-70
2022/12/29 05:50:42;;;;;;;;;;;9.50;99.90;;;;;;4952604;28;244843;-71
2022/12/29 05:53:08;;;;;;;;;;;9.50;99.90;;;;;;5011673;28;20377;-71
2022/12/29 05:55:34;;;;;;;;;;;9.50;99.90;;;;;;4951816;28;210093;-73
2022/12/29 05:58:00;;;;;;;;;;;9.50;99.90;;;;;;4990481;28;19925;-71
2022/12/29 06:00:26;;;;;;;;;;;9.50;99.90;;;;;;4943614;28;215157;-71
2022/12/29 06:02:52;;;;;;;;;;;9.60;99.90;;;;;;5006448;28;19922;-70
2022/12/29 06:05:18;;;;;;;;;;;9.60;99.90;;;;;;4947355;28;211011;-70
2022/12/29 06:07:45;;;;;;;;;;;9.60;99.90;;;;;;5001672;28;20484;-70
2022/12/29 06:10:11;;;;;;;;;;;9.60;99.90;;;;;;4946819;28;298814;-69
2022/12/29 06:12:36;;;;;;;;;;;9.60;99.90;;;;;;4994630;28;19925;-69
2022/12/29 06:15:03;;;;;;;;;;;9.60;99.90;;;;;;4973018;28;209516;-70
2022/12/29 06:17:28;;;;;;;;;;;9.60;99.90;;;;;;4981957;28;20848;-72
2022/12/29 06:19:54;;;;;;;;;;;9.60;99.90;;;;;;5001630;28;19925;-71
2022/12/29 06:22:20;;;;;;;;;;;9.50;99.90;;;;;;4950103;28;239441;-70
2022/12/29 06:24:46;;;;;;;;;;;9.50;99.90;;;;;;5003030;28;19932;-71
2022/12/29 06:27:13;;;;;;;;;;;9.50;99.90;;;;;;4956985;28;225428;-70
2022/12/29 06:29:40;;;;;;;;;;;9.50;99.90;;;;;;4999116;28;20410;-72
2022/12/29 06:32:06;;;;;;;;;;;9.50;99.90;;;;;;4961702;28;233005;-71
2022/12/29 06:34:32;;;;;;;;;;;9.50;99.90;;;;;;4995991;28;19937;-70
2022/12/29 06:36:58;;;;;;;;;;;9.50;99.90;;;;;;4967155;28;214519;-71
2022/12/29 06:39:24;;;;;;;;;;;9.50;99.90;;;;;;4997054;28;19922;-71
2022/12/29 06:41:53;;;;;;;;;;;9.40;99.90;;;;;;4948461;28;67906;-72
2022/12/29 06:44:22;;;;;;;;;;;9.40;99.90;;;;;;5001293;28;19921;-72
2022/12/29 06:46:48;;;;;;;;;;;9.40;99.90;;;;;;4945046;28;241983;-72
2022/12/29 06:49:14;;;;;;;;;;;9.30;99.90;;;;;;5000290;28;19922;-71
2022/12/29 06:51:40;;;;;;;;;;;9.30;99.90;;;;;;4959447;28;172830;-71
2022/12/29 06:54:06;;;;;;;;;;;9.30;99.90;;;;;;5002720;28;19921;-69
2022/12/29 06:56:32;;;;;;;;;;;9.30;99.90;;;;;;4954431;28;208169;-71
2022/12/29 06:59:00;;;;;;;;;;;9.40;99.90;;;;;;5001425;28;19922;-70
2022/12/29 07:01:26;;;;;;;;;;;9.40;99.90;;;;;;4940922;28;159817;-70
2022/12/29 07:03:52;;;;;;;;;;;9.40;99.90;;;;;;5004818;28;19925;-71
2022/12/29 07:06:18;;;;;;;;;;;9.40;99.90;;;;;;4955735;28;138435;-72
2022/12/29 07:08:44;;;;;;;;;;;9.40;99.90;;;;;;5005454;28;19940;-70
2022/12/29 07:11:10;;;;;;;;;;;9.50;99.90;;;;;;4945387;28;208447;-71
2022/12/29 07:13:36;;;;;;;;;;;9.60;99.90;;;;;;5002776;28;20391;-71
2022/12/29 07:16:06;;;;;;;;;;;9.60;99.90;;;;;;4961972;28;191200;-71
2022/12/29 07:18:32;;;;;;;;;;;9.60;99.90;;;;;;5002598;28;19929;-72
2022/12/29 07:20:58;;;;;;;;;;;9.60;99.90;;;;;;4943554;28;209663;-71
2022/12/29 07:23:24;;;;;;;;;;;9.60;99.90;;;;;;4982579;28;19925;-72
2022/12/29 07:25:49;;;;;;;;;;;9.50;99.90;;;;;;4956347;28;206725;-71
2022/12/29 07:28:15;;;;;;;;;;;9.50;99.90;;;;;;5002411;28;20301;-71
2022/12/29 07:30:41;;;;;;;;;;;9.60;99.90;;;;;;4940964;28;71093;-72
2022/12/29 07:33:07;;;;;;;;;;;9.60;99.90;;;;;;4993185;28;19936;-72
2022/12/29 07:35:34;;;;;;;;;;;9.50;99.90;;;;;;4953510;28;188069;-72
2022/12/29 07:37:59;;;;;;;;;;;9.50;99.90;;;;;;5007650;28;19930;-71
2022/12/29 07:40:25;;;;;;;;;;;9.50;99.90;;;;;;4950113;28;208176;-70
2022/12/29 07:42:51;;;;;;;;;;;9.50;99.90;;;;;;5004992;28;19926;-70
2022/12/29 07:45:17;;;;;;;;;;;9.50;99.90;;;;;;4962566;28;207769;-70
2022/12/29 07:47:46;;;;;;;;;;;9.60;99.90;;;;;;5019754;28;20439;-72
2022/12/29 07:50:12;;;;;;;;;;;9.60;99.90;;;;;;4961190;28;204149;-71
2022/12/29 07:52:41;;;;;;;;;;;9.60;99.90;;;;;;4984813;28;19926;-70
2022/12/29 07:55:07;;;;;;;;;;;9.60;99.90;;;;;;4957720;28;206571;-70
2022/12/29 07:57:32;;;;;;;;;;;9.50;99.90;;;;;;4990095;28;19944;-71
2022/12/29 07:59:59;;;;;;;;;;;9.50;99.90;;;;;;4985184;28;259879;-71
2022/12/29 08:02:26;;;;;;;;;;;9.60;99.90;;;;;;4961917;28;165639;-70
2022/12/29 08:04:51;;;;;;;;;;;9.60;99.90;;;;;;5004883;28;19921;-70
2022/12/29 08:07:17;;;;;;;;;;;9.60;99.90;;;;;;4933975;28;205861;-71
2022/12/29 08:09:43;;;;;;;;;;;9.60;99.90;;;;;;5003587;28;19944;-71
2022/12/29 08:12:10;;;;;;;;;;;9.60;99.90;;;;;;4952666;28;212926;-71
2022/12/29 08:14:36;;;;;;;;;;;9.50;99.90;;;;;;4986702;28;19940;-70
2022/12/29 08:17:02;;;;;;;;;;;9.50;99.90;;;;;;4923135;28;183466;-72
2022/12/29 08:19:28;;;;;;;;;;;9.50;99.90;;;;;;4986659;28;19930;-72
2022/12/29 08:21:54;;;;;;;;;;;9.50;99.90;;;;;;4942140;28;93622;-73
2022/12/29 08:24:20;;;;;;;;;;;9.50;99.90;;;;;;4981874;28;19936;-72
2022/12/29 08:26:46;;;;;;;;;;;9.50;99.90;;;;;;4925724;28;212883;-71
2022/12/29 08:29:11;;;;;;;;;;;9.60;99.90;;;;;;4983532;28;20546;-70
2022/12/29 08:31:37;;;;;;;;;;;9.60;99.90;;;;;;4947554;28;206805;-69
2022/12/29 08:34:03;;;;;;;;;;;9.60;99.90;;;;;;4981333;28;20391;-69
2022/12/29 08:36:30;;;;;;;;;;;9.70;99.90;;;;;;4953124;28;211250;-69
2022/12/29 08:38:56;;;;;;;;;;;9.60;99.90;;;;;;4989412;28;19929;-72
2022/12/29 08:41:22;;;;;;;;;;;9.60;99.90;;;;;;4931639;28;229327;-70
2022/12/29 08:43:49;;;;;;;;;;;9.60;99.90;;;;;;4979489;28;20395;-70
2022/12/29 08:46:15;;;;;;;;;;;9.60;99.90;;;;;;4934513;28;207786;-72
2022/12/29 08:48:44;;;;;;;;;;;9.60;99.90;;;;;;4990493;28;19922;-71
2022/12/29 08:51:10;;;;;;;;;;;9.60;99.90;;;;;;4937155;28;207553;-71
2022/12/29 08:53:36;;;;;;;;;;;9.70;99.90;;;;;;4985348;28;20395;-69
2022/12/29 08:56:02;;;;;;;;;;;9.70;99.90;;;;;;4944886;28;210069;-70
2022/12/29 08:58:28;;;;;;;;;;;9.60;99.90;;;;;;4984244;28;19930;-70
2022/12/29 09:00:56;;;;;;;;;;;9.70;99.90;;;;;;4924963;28;220062;-69
2022/12/29 09:03:25;;;;;;;;;;;9.70;99.90;;;;;;4977024;28;19926;-71
2022/12/29 09:05:51;;;;;;;;;;;9.60;99.90;;;;;;4941914;28;213853;-69
2022/12/29 09:08:17;;;;;;;;;;;9.60;99.90;;;;;;4991388;28;19926;-70
2022/12/29 09:10:46;;;;;;;;;;;9.50;99.90;;;;;;4938588;28;207462;-71
2022/12/29 09:13:12;;;;;;;;;;;9.50;99.90;;;;;;4995389;28;21245;-70
2022/12/29 09:15:38;;;;;;;;;;;9.40;99.90;;;;;;4949288;28;213369;-71
2022/12/29 09:18:05;;;;;;;;;;;9.30;99.90;;;;;;4993686;28;19937;-71
2022/12/29 09:20:31;;;;;;;;;;;9.20;99.90;;;;;;4955966;28;107887;-71
2022/12/29 09:23:01;;;;;;;;;;;9.20;99.90;;;;;;4996393;28;19925;-71
2022/12/29 09:25:27;;;;;;;;;;;9.20;99.90;;;;;;4947820;28;212639;-71
2022/12/29 09:27:53;;;;;;;;;;;9.20;99.90;;;;;;4998714;28;19922;-72
2022/12/29 09:30:23;;;;;;;;;;;9.20;99.90;;;;;;4958422;28;108950;-72
2022/12/29 09:32:49;;;;;;;;;;;9.20;99.90;;;;;;5011941;28;19929;-72
2022/12/29 09:35:16;;;;;;;;;;;9.20;99.90;;;;;;4952116;28;208034;-71
2022/12/29 09:37:43;;;;;;;;;;;9.20;99.90;;;;;;4984979;28;19945;-71
2022/12/29 09:40:29;;;;;;;;;;;9.30;99.90;;;;;;4923865;28;334788;-71
2022/12/29 09:43:11;;;;;;;;;;;9.40;99.90;;;;;;5014436;28;20330;-72
2022/12/29 09:45:49;;;;;;;;;;;9.40;99.90;;;;;;4949136;28;202910;-71
2022/12/29 09:48:43;;;;;;;;;;;9.40;99.90;;;;;;5007310;28;20410;-72
2022/12/29 09:51:11;;;;;;;;;;;9.40;99.90;;;;;;4945277;28;294098;-71
2022/12/29 09:53:46;;;;;;;;;;;9.40;99.90;;;;;;5000531;28;19921;-71
2022/12/29 09:56:14;;;;;;;;;;;9.40;99.90;;;;;;4956440;28;208152;-70
2022/12/29 09:58:44;;;;;;;;;;;9.30;99.90;;;;;;5001438;28;19925;-71
2022/12/29 10:01:19;;;;;;;;;;;9.20;99.90;;;;;;4946595;28;214752;-72
2022/12/29 10:03:50;;;;;;;;;;;9.10;99.90;;;;;;5003254;28;20378;-70
2022/12/29 10:06:21;;;;;;;;;;;9.00;99.90;;;;;;4946551;28;244377;-71
2022/12/29 10:08:52;;;;;;;;;;;9.00;99.90;;;;;;5000493;28;20307;-71
2022/12/29 10:11:36;;;;;;;;;;;9.00;99.90;;;;;;4957952;28;208996;-70
2022/12/29 10:14:18;;;;;;;;;;;9.00;99.90;;;;;;5000067;28;20141;-70
2022/12/29 10:17:05;;;;;;;;;;;8.90;99.90;;;;;;4944921;28;206542;-70
2022/12/29 10:19:34;;;;;;;;;;;8.90;99.90;;;;;;4997874;28;20401;-69
2022/12/29 10:22:29;;;;;;;;;;;8.90;99.90;;;;;;4944369;28;213924;-68
2022/12/29 10:24:56;;;;;;;;;;;8.90;99.90;;;;;;4974749;28;57962;-67
2022/12/29 10:27:23;;;;;;;;;;;8.80;99.90;;;;;;4926969;28;206870;-71
2022/12/29 10:29:57;;;;;;;;;;;8.80;99.90;;;;;;4980016;28;21277;-71
2022/12/29 10:32:30;;;;;;;;;;;8.70;99.90;;;;;;4891830;28;239051;-71
2022/12/29 10:34:58;;;;;;;;;;;8.70;99.90;;;;;;4968559;28;118285;-67
2022/12/29 10:37:33;;;;;;;;;;;8.70;99.90;;;;;;4937813;28;211582;-72
2022/12/29 10:39:59;;;;;;;;;;;8.70;99.90;;;;;;4968050;28;105540;-70
2022/12/29 10:42:28;;;;;;;;;;;8.70;99.90;;;;;;4928643;28;162331;-71
2022/12/29 10:44:54;;;;;;;;;;;8.60;99.90;;;;;;4978942;28;19929;-70
2022/12/29 10:47:25;;;;;;;;;;;8.70;99.90;;;;;;4879031;28;206627;-71
2022/12/29 10:49:51;;;;;;;;;;;8.70;99.90;;;;;;4980411;28;19940;-73
2022/12/29 10:52:18;;;;;;;;;;;8.70;99.90;;;;;;4915752;28;246129;-72
2022/12/29 10:54:55;;;;;;;;;;;8.60;99.90;;;;;;4977624;28;19922;-71
2022/12/29 10:57:21;;;;;;;;;;;8.70;99.90;;;;;;4910515;28;206182;-72
2022/12/29 10:59:47;;;;;;;;;;;8.60;99.90;;;;;;4964245;28;19926;-72
2022/12/29 11:02:22;;;;;;;;;;;8.70;99.90;;;;;;4927428;28;178672;-73
2022/12/29 11:04:54;;;;;;;;;;;8.70;99.90;;;;;;4999917;28;19926;-73
2022/12/29 11:07:20;;;;;;;;;;;8.70;99.90;;;;;;4957219;28;206813;-73
2022/12/29 11:09:46;;;;;;;;;;;8.70;99.90;;;;;;5003783;28;19933;-71
2022/12/29 11:12:18;;;;;;;;;;;8.70;99.90;;;;;;4956572;28;220423;-71
2022/12/29 11:14:43;;;;;;;;;;;8.70;99.90;;;;;;5003789;28;19922;-72
2022/12/29 11:17:14;;;;;;;;;;;8.70;99.90;;;;;;4943769;28;214251;-71
2022/12/29 11:19:39;;;;;;;;;;;8.70;99.90;;;;;;5000696;28;19952;-72
2022/12/29 11:22:36;;;;;;;;;;;8.70;99.90;;;;;;4947240;28;207392;-72
2022/12/29 11:25:09;;;;;;;;;;;8.70;99.90;;;;;;4961554;28;212716;-72
2022/12/29 11:27:35;;;;;;;;;;;8.70;99.90;;;;;;4985414;28;206551;-72
2022/12/29 11:30:21;;;;;;;;;;;8.70;99.90;;;;;;4962983;28;3004450;-69
2022/12/29 11:32:52;;;;;;;;;;;8.80;99.90;;;;;;4966166;28;205431;-71
2022/12/29 11:35:29;;;;;;;;;;;8.80;99.90;;;;;;4954866;28;207230;-71
2022/12/29 11:37:57;;;;;;;;;;;8.80;99.90;;;;;;5007557;28;19925;-72
2022/12/29 11:40:23;;;;;;;;;;;8.90;99.90;;;;;;4953791;28;208602;-71
2022/12/29 11:42:58;;;;;;;;;;;8.90;99.90;;;;;;5016051;28;20013;-71
2022/12/29 11:45:26;;;;;;;;;;;8.90;99.90;;;;;;4949042;28;207122;-71
2022/12/29 11:47:53;;;;;;;;;;;9.00;99.90;;;;;;5000682;28;19926;-71
2022/12/29 11:50:23;;;;;;;;;;;9.10;99.90;;;;;;4952811;28;236069;-71
2022/12/29 11:52:51;;;;;;;;;;;9.20;99.90;;;;;;5002085;28;19929;-71
2022/12/29 11:55:20;;;;;;;;;;;9.30;99.90;;;;;;4957696;28;210483;-71
2022/12/29 11:57:46;;;;;;;;;;;9.40;99.90;;;;;;4999907;28;19936;-72
2022/12/29 12:00:16;;;;;;;;;;;9.50;99.90;;;;;;4945428;28;214066;-72
2022/12/29 12:02:45;;;;;;;;;;;9.50;99.90;;;;;;5015054;28;19922;-70
2022/12/29 12:05:14;;;;;;;;;;;9.60;99.90;;;;;;4951196;28;207058;-71
2022/12/29 12:07:42;;;;;;;;;;;9.50;99.90;;;;;;5002264;28;19922;-71
2022/12/29 12:10:23;;;;;;;;;;;9.60;99.90;;;;;;4959871;28;209794;-72
2022/12/29 12:12:52;;;;;;;;;;;9.70;99.90;;;;;;5000392;28;19925;-71
2022/12/29 12:15:27;;;;;;;;;;;9.70;99.90;;;;;;4953401;28;208177;-70
2022/12/29 12:17:55;;;;;;;;;;;9.70;99.90;;;;;;5005864;28;20379;-71
2022/12/29 12:20:34;;;;;;;;;;;9.70;99.90;;;;;;4951626;28;208205;-71
2022/12/29 12:23:12;;;;;;;;;;;10.40;99.90;;;;;;4998381;28;19925;-72
2022/12/29 12:25:41;;;;;;;;;;;10.80;99.90;;;;;;4958770;28;207069;-69
2022/12/29 12:28:18;;;;;;;;;;;10.30;99.90;;;;;;5008442;28;19926;-71
2022/12/29 12:30:46;;;;;;;;;;;10.00;99.90;;;;;;4953921;28;218405;-70
2022/12/29 12:33:25;;;;;;;;;;;10.80;99.90;;;;;;5009059;28;19929;-69
2022/12/29 12:36:09;;;;;;;;;;;11.50;99.90;;;;;;4948001;28;206431;-71
2022/12/29 12:38:45;;;;;;;;;;;11.60;99.90;;;;;;5000638;28;19933;-70
2022/12/29 12:41:22;;;;;;;;;;;11.80;99.90;;;;;;4960323;28;139698;-71
2022/12/29 12:43:48;;;;;;;;;;;12.10;99.90;;;;;;4994942;28;20331;-71
2022/12/29 12:46:17;;;;;;;;;;;11.40;99.90;;;;;;4962133;28;212825;-70
2022/12/29 12:48:49;;;;;;;;;;;10.90;99.90;;;;;;5004314;28;19922;-70
2022/12/29 12:51:29;;;;;;;;;;;10.60;99.90;;;;;;4958342;28;207347;-71
2022/12/29 12:54:14;;;;;;;;;;;10.60;99.90;;;;;;5001786;28;19932;-70
2022/12/29 12:56:58;;;;;;;;;;;11.20;99.90;;;;;;4962358;28;207133;-71
2022/12/29 12:59:31;;;;;;;;;;;10.60;99.90;;;;;;5005716;28;19926;-71
2022/12/29 13:02:01;;;;;;;;;;;10.30;99.90;;;;;;4943500;28;205588;-70
2022/12/29 13:04:30;;;;;;;;;;;10.20;99.90;;;;;;5002814;28;19926;-70
2022/12/29 13:07:15;;;;;;;;;;;10.30;99.90;;;;;;4945846;28;206691;-70
2022/12/29 13:09:47;;;;;;;;;;;10.50;99.90;;;;;;5000535;28;19921;-71
2022/12/29 13:12:27;;;;;;;;;;;11.20;99.90;;;;;;4955835;28;207395;-70
2022/12/29 13:15:08;;;;;;;;;;;11.20;99.90;;;;;;5000813;28;19926;-70
2022/12/29 13:17:34;;;;;;;;;;;11.00;99.90;;;;;;4943344;28;51945;-71
2022/12/29 13:20:20;;;;;;;;;;;11.10;99.90;;;;;;4985621;28;214469;-70
2022/12/29 13:22:46;;;;;;;;;;;10.80;99.90;;;;;;4935570;28;19922;-70
2022/12/29 13:25:27;;;;;;;;;;;10.70;99.90;;;;;;4964013;28;205755;-70
2022/12/29 13:27:57;;;;;;;;;;;10.40;99.90;;;;;;5000472;28;19929;-70
2022/12/29 13:30:29;;;;;;;;;;;10.30;99.90;;;;;;4959808;28;36323;-70
2022/12/29 13:33:04;;;;;;;;;;;10.40;99.90;;;;;;5001202;28;20295;-70
2022/12/29 13:35:43;;;;;;;;;;;10.10;99.90;;;;;;4952609;28;210882;-71
2022/12/29 13:38:16;;;;;;;;;;;10.10;99.90;;;;;;5001818;28;19960;-72
2022/12/29 13:40:44;;;;;;;;;;;10.00;99.90;;;;;;4956105;28;211152;-71
2022/12/29 13:43:11;;;;;;;;;;;10.00;99.90;;;;;;4997418;28;19925;-70
2022/12/29 13:45:38;;;;;;;;;;;10.10;99.90;;;;;;4955878;28;206045;-72
2022/12/29 13:48:20;;;;;;;;;;;10.00;99.90;;;;;;5005766;28;19929;-70
2022/12/29 13:50:50;;;;;;;;;;;10.20;99.90;;;;;;4960487;28;209192;-71
2022/12/29 13:53:26;;;;;;;;;;;10.10;99.90;;;;;;4977477;28;19925;-69
2022/12/29 13:56:10;;;;;;;;;;;10.20;99.90;;;;;;4965101;28;215912;-70
2022/12/29 13:58:38;;;;;;;;;;;10.50;99.90;;;;;;4996030;28;20350;-69
2022/12/29 14:01:17;;;;;;;;;;;10.60;99.90;;;;;;4950662;28;207873;-71
2022/12/29 14:03:49;;;;;;;;;;;10.30;99.90;;;;;;5013742;28;20287;-70
2022/12/29 14:06:23;;;;;;;;;;;10.20;99.90;;;;;;4937533;28;173642;-71
2022/12/29 14:08:49;;;;;;;;;;;10.00;99.90;;;;;;4998248;28;19921;-68
2022/12/29 14:11:17;;;;;;;;;;;9.80;99.90;;;;;;4940940;28;97884;-69
2022/12/29 14:13:44;;;;;;;;;;;9.70;99.90;;;;;;4999515;28;19929;-69
2022/12/29 14:16:24;;;;;;;;;;;9.60;99.90;;;;;;4949826;28;105670;-69
2022/12/29 14:18:50;;;;;;;;;;;9.50;99.90;;;;;;4997259;28;19933;-69
2022/12/29 14:21:16;;;;;;;;;;;9.40;99.90;;;;;;4952722;28;214772;-70
2022/12/29 14:23:43;;;;;;;;;;;9.40;99.90;;;;;;4996585;28;21265;-70
2022/12/29 14:26:09;;;;;;;;;;;9.30;99.90;;;;;;4955816;28;205445;-70
2022/12/29 14:28:39;;;;;;;;;;;9.30;99.90;;;;;;5006372;28;19922;-71
2022/12/29 14:31:24;;;;;;;;;;;9.20;99.90;;;;;;4946144;28;207277;-71
2022/12/29 14:34:17;;;;;;;;;;;9.20;99.90;;;;;;4998094;28;19937;-70
2022/12/29 14:36:59;;;;;;;;;;;9.20;99.90;;;;;;4916721;28;72212;-71
2022/12/29 14:39:34;;;;;;;;;;;9.20;99.90;;;;;;5005515;28;19925;-73
2022/12/29 14:42:09;;;;;;;;;;;9.10;99.90;;;;;;4960256;28;221857;-72
2022/12/29 14:44:47;;;;;;;;;;;9.10;99.90;;;;;;5006396;28;19922;-71
2022/12/29 14:47:27;;;;;;;;;;;9.00;99.90;;;;;;4956885;28;215304;-71
2022/12/29 14:49:53;;;;;;;;;;;9.00;99.90;;;;;;4987566;28;19932;-72
2022/12/29 14:52:27;;;;;;;;;;;8.90;99.90;;;;;;4965344;28;207009;-72
2022/12/29 14:54:54;;;;;;;;;;;8.90;99.90;;;;;;5000732;28;19928;-70
2022/12/29 14:57:26;;;;;;;;;;;8.90;99.90;;;;;;4961088;28;272333;-73
2022/12/29 14:59:54;;;;;;;;;;;8.80;99.90;;;;;;5009505;28;19926;-71
2022/12/29 15:02:22;;;;;;;;;;;8.80;99.90;;;;;;4956045;28;220465;-71
2022/12/29 15:04:48;;;;;;;;;;;8.70;99.90;;;;;;5029612;28;20312;-71
2022/12/29 15:07:14;;;;;;;;;;;8.70;99.90;;;;;;4960211;28;208272;-71
2022/12/29 15:09:50;;;;;;;;;;;8.80;99.90;;;;;;5024568;28;19932;-71
2022/12/29 15:12:23;;;;;;;;;;;8.70;99.90;;;;;;4951899;28;206501;-72